Time;durP1;ratioP1;P1;durP2;ratioP2;P2;SDS_P1;SDS_P2;PMS_P1;PMS_P2;Temp;Humidity;BMP_temperature;BMP_pressure;BME280_temperature;BME280_humidity;BME280_pressure;Samples;Min_cycle;Max_cycle;Signal;HPM_P1;HPM_P2
2022/08/16 00:02:03;;;;;;;;;;;;;;;-145.18;100.00;46640.88;4952402;29;19918;-68
2022/08/16 00:04:28;;;;;;;;;;;;;;;-145.18;100.00;46652.59;4952933;29;19945;-68
2022/08/16 00:06:54;;;;;;;;;;;;;;;-145.18;100.00;46642.81;4989898;28;20398;-68
2022/08/16 00:09:19;;;;;;;;;;;;;;;-145.18;100.00;46652.59;4991647;28;20371;-68
2022/08/16 00:11:45;;;;;;;;;;;;;;;-145.18;100.00;46652.59;5024069;28;19930;-68
2022/08/16 00:14:12;;;;;;;;;;;;;;;-145.18;100.00;46658.44;5033144;28;19917;-67
2022/08/16 00:16:38;;;;;;;;;;;;;;;-145.18;100.00;46660.41;5032971;28;19992;-68
2022/08/16 00:19:04;;;;;;;;;;;;;;;-145.18;100.00;46654.53;5033240;28;19921;-68
2022/08/16 00:21:29;;;;;;;;;;;;;;;-145.18;100.00;46652.59;5032953;28;19996;-68
2022/08/16 00:23:55;;;;;;;;;;;;;;;-145.18;100.00;46654.53;5033229;28;20519;-68
2022/08/16 00:26:21;;;;;;;;;;;;;;;-145.18;100.00;46656.50;5033011;28;19936;-67
2022/08/16 00:28:46;;;;;;;;;;;;;;;-145.18;100.00;46654.53;5033285;28;20572;-68
2022/08/16 00:31:11;;;;;;;;;;;;;;;-145.18;100.00;46656.50;5032758;28;19925;-67
2022/08/16 00:33:36;;;;;;;;;;;;;;;-145.18;100.00;46652.59;5032895;28;19921;-67
2022/08/16 00:36:02;;;;;;;;;;;;;;;-145.18;100.00;46652.59;5032595;28;19921;-68
2022/08/16 00:38:27;;;;;;;;;;;;;;;-145.18;100.00;46654.53;5033138;28;19925;-68
2022/08/16 00:40:53;;;;;;;;;;;;;;;-145.18;100.00;46654.53;5032560;28;19925;-68
2022/08/16 00:43:21;;;;;;;;;;;;;;;-145.18;100.00;46658.44;5014778;28;19921;-68
2022/08/16 00:45:58;;;;;;;;;;;;;;;-145.18;100.00;46656.50;5032686;28;19960;-68
2022/08/16 00:48:23;;;;;;;;;;;;;;;-145.18;100.00;46654.53;5032402;28;20405;-68
2022/08/16 00:50:48;;;;;;;;;;;;;;;-145.18;100.00;46660.41;5032808;28;19951;-68
2022/08/16 00:53:15;;;;;;;;;;;;;;;-145.18;100.00;46656.50;5031844;28;19924;-68
2022/08/16 00:55:48;;;;;;;;;;;;;;;-145.18;100.00;46658.44;5032886;28;19921;-67
2022/08/16 00:58:15;;;;;;;;;;;;;;;-145.18;100.00;46656.50;5032043;28;19913;-68
2022/08/16 01:00:40;;;;;;;;;;;;;;;-145.18;100.00;46660.41;5032519;28;19925;-68
2022/08/16 01:03:07;;;;;;;;;;;;;;;-145.18;100.00;46660.41;5031688;28;20352;-68
2022/08/16 01:05:33;;;;;;;;;;;;;;;-145.18;100.00;46656.50;5032596;28;19921;-68
2022/08/16 01:07:59;;;;;;;;;;;;;;;-145.18;100.00;46660.41;5032143;28;19971;-68
2022/08/16 01:10:26;;;;;;;;;;;;;;;-145.18;100.00;46658.44;5032485;28;19925;-68
2022/08/16 01:12:52;;;;;;;;;;;;;;;-145.18;100.00;46658.44;5031582;28;19921;-68
2022/08/16 01:15:17;;;;;;;;;;;;;;;-145.18;100.00;46660.41;5032389;28;20026;-68
2022/08/16 01:17:43;;;;;;;;;;;;;;;-145.18;100.00;46660.41;5032058;28;19917;-68
2022/08/16 01:20:10;;;;;;;;;;;;;;;-145.18;100.00;46658.44;5031975;28;19913;-68
2022/08/16 01:22:44;;;;;;;;;;;;;;;-145.18;100.00;46660.41;5031753;28;19917;-68
2022/08/16 01:25:12;;;;;;;;;;;;;;;-145.18;100.00;46660.41;5031863;28;19921;-68
2022/08/16 01:27:43;;;;;;;;;;;;;;;-145.18;100.00;46660.41;5031840;28;20357;-68
2022/08/16 01:30:08;;;;;;;;;;;;;;;-145.18;100.00;46660.41;5031675;28;20393;-68
2022/08/16 01:32:37;;;;;;;;;;;;;;;-145.18;100.00;46660.41;5031692;28;19963;-68
2022/08/16 01:35:07;;;;;;;;;;;;;;;-145.18;100.00;46658.44;5031699;28;20011;-68
2022/08/16 01:37:40;;;;;;;;;;;;;;;-145.18;100.00;46660.41;5031558;28;19920;-68
2022/08/16 01:40:06;;;;;;;;;;;;;;;-145.18;100.00;46660.41;5031642;28;19921;-68
2022/08/16 01:42:32;;;;;;;;;;;;;;;-145.18;100.00;46660.41;5031532;28;19956;-68
2022/08/16 01:44:57;;;;;;;;;;;;;;;-145.18;100.00;46660.41;5014066;28;19928;-68
2022/08/16 01:47:22;;;;;;;;;;;;;;;-145.18;100.00;46660.41;5031317;28;20297;-68
2022/08/16 01:49:47;;;;;;;;;;;;;;;-145.18;100.00;46660.41;5031673;28;19925;-67
2022/08/16 01:52:15;;;;;;;;;;;;;;;-145.18;100.00;46660.41;5030509;28;19932;-68
2022/08/16 01:54:40;;;;;;;;;;;;;;;-145.18;100.00;46660.41;5031512;28;19917;-67
2022/08/16 01:57:06;;;;;;;;;;;;;;;-145.18;100.00;46660.41;5031157;28;19971;-68
2022/08/16 01:59:32;;;;;;;;;;;;;;;-145.18;100.00;46660.41;5031473;28;20397;-67
2022/08/16 02:02:01;;;;;;;;;;;;;;;-145.18;100.00;46660.41;5377131;22;19951;-70
2022/08/16 02:04:27;;;;;;;;;;;;;;;-145.18;100.00;46660.41;5070322;28;19932;-70
2022/08/16 02:06:53;;;;;;;;;;;;;;;-145.18;100.00;46656.50;5070664;28;19924;-70
2022/08/16 02:09:20;;;;;;;;;;;;;;;-145.18;100.00;46660.41;5070552;28;20817;-68
2022/08/16 02:11:47;;;;;;;;;;;;;;;-145.18;100.00;46660.41;5071099;28;19917;-68
2022/08/16 02:14:12;;;;;;;;;;;;;;;-145.18;100.00;46660.41;5070485;28;19917;-70
2022/08/16 02:16:39;;;;;;;;;;;;;;;-145.18;100.00;46660.41;5070926;28;20583;-68
2022/08/16 02:19:05;;;;;;;;;;;;;;;-145.18;100.00;46658.44;5070734;28;19920;-70
2022/08/16 02:21:30;;;;;;;;;;;;;;;-145.18;100.00;46658.44;5071155;28;19916;-70
2022/08/16 02:23:56;;;;;;;;;;;;;;;-145.18;100.00;46658.44;5070607;28;19917;-68
2022/08/16 02:26:21;;;;;;;;;;;;;;;-145.18;100.00;46660.41;5070547;28;19917;-68
2022/08/16 02:28:47;;;;;;;;;;;;;;;-145.18;100.00;46660.41;5070632;28;19928;-68
2022/08/16 02:31:13;;;;;;;;;;;;;;;-145.18;100.00;46654.53;5070755;28;19923;-68
2022/08/16 02:33:39;;;;;;;;;;;;;;;-145.18;100.00;46660.41;5070396;28;19921;-68
2022/08/16 02:36:05;;;;;;;;;;;;;;;-145.18;100.00;46660.41;5070611;28;19921;-68
2022/08/16 02:38:31;;;;;;;;;;;;;;;-145.18;100.00;46658.44;5070792;28;20002;-70
2022/08/16 02:40:57;;;;;;;;;;;;;;;-145.18;100.00;46660.41;5070566;28;19923;-70
2022/08/16 02:43:24;;;;;;;;;;;;;;;-145.18;100.00;46660.41;5070293;28;19917;-70
2022/08/16 02:45:49;;;;;;;;;;;;;;;-145.18;100.00;46660.41;5071003;28;19920;-70
2022/08/16 02:48:14;;;;;;;;;;;;;;;-145.18;100.00;46660.41;5070407;28;19932;-70
2022/08/16 02:50:39;;;;;;;;;;;;;;;-145.18;100.00;46660.41;5070840;28;20308;-70
2022/08/16 02:53:04;;;;;;;;;;;;;;;-145.18;100.00;46660.41;5070410;28;20340;-70
2022/08/16 02:55:30;;;;;;;;;;;;;;;-145.18;100.00;46658.44;5070462;28;20377;-70
2022/08/16 02:57:55;;;;;;;;;;;;;;;-145.18;100.00;46660.41;5070537;28;19928;-70
2022/08/16 03:00:20;;;;;;;;;;;;;;;-145.18;100.00;46660.41;5070361;28;19920;-69
2022/08/16 03:03:14;;;;;;;;;;;;;;;-145.18;100.00;46658.44;5070325;28;19963;-70
2022/08/16 03:09:48;;;;;;;;;;;;;;;-145.18;100.00;46658.44;5074201;28;19985;-69
2022/08/16 03:19:36;;;;;;;;;;;;;;;-145.18;100.00;46656.50;5073928;28;19995;-69
2022/08/16 03:22:57;;;;;;;;;;;;;;;-145.18;100.00;46656.50;5073637;28;19916;-69
2022/08/16 03:26:25;;;;;;;;;;;;;;;-145.18;100.00;46654.53;5073518;28;19916;-69
2022/08/16 03:29:54;;;;;;;;;;;;;;;-145.18;100.00;46656.50;5072829;28;19917;-70
2022/08/16 03:33:15;;;;;;;;;;;;;;;-145.18;100.00;46656.50;5073942;28;19924;-69
2022/08/16 03:36:36;;;;;;;;;;;;;;;-145.18;100.00;46656.50;5074140;28;19927;-70
2022/08/16 03:39:57;;;;;;;;;;;;;;;-145.18;100.00;46654.53;5073434;28;19920;-69
2022/08/16 03:43:26;;;;;;;;;;;;;;;-145.18;100.00;46656.50;5072384;28;19924;-69
2022/08/16 03:46:49;;;;;;;;;;;;;;;-145.18;100.00;46656.50;5073922;28;19923;-70
2022/08/16 03:50:13;;;;;;;;;;;;;;;-145.18;100.00;46656.50;5073669;28;19916;-70
2022/08/16 04:00:11;;;;;;;;;;;;;;;-145.18;100.00;46650.63;5073177;28;20383;-70
2022/08/16 11:52:26;;;;;;;;;;;;;;;-145.18;100.00;46937.78;5046577;28;19936;-70
2022/08/16 11:55:49;;;;;;;;;;;;;;;-145.18;100.00;47019.81;5032941;28;20389;-70
2022/08/16 12:02:21;;;;;;;;;;;;;;;-145.18;100.00;46488.50;5033086;28;19975;-70
2022/08/16 12:05:42;;;;;;;;;;;;;;;-145.18;100.00;46511.94;5029854;28;19928;-70
2022/08/16 12:09:04;;;;;;;;;;;;;;;-145.18;100.00;46535.38;5030384;28;20280;-70
2022/08/16 12:12:26;;;;;;;;;;;;;;;-145.18;100.00;46519.75;5016014;28;19965;-69
2022/08/16 12:18:56;;;;;;;;;;;;;;;-145.18;100.00;46529.53;5032494;28;20021;-70
2022/08/16 12:22:16;;;;;;;;;;;;;;;-145.18;100.00;46504.13;5032632;28;20373;-70
2022/08/16 12:25:36;;;;;;;;;;;;;;;-145.18;100.00;46498.28;5032491;28;19925;-70
2022/08/16 12:28:56;;;;;;;;;;;;;;;-145.18;100.00;46488.50;5032274;28;19925;-70
2022/08/16 12:32:15;;;;;;;;;;;;;;;-145.18;100.00;46500.22;5024893;28;20215;-70
2022/08/16 12:35:34;;;;;;;;;;;;;;;-145.18;100.00;46465.06;5025870;28;19925;-70
2022/08/16 12:38:51;;;;;;;;;;;;;;;-145.18;100.00;46445.53;5032533;28;19928;-70
2022/08/16 12:42:09;;;;;;;;;;;;;;;-145.18;100.00;46545.16;5018807;28;19972;-70
2022/08/16 18:49:47;;;;;;;;;;;;;;;-145.18;100.00;46660.41;4752343;26;19932;-75
2022/08/16 18:52:13;;;;;;;;;;;;;;;-145.18;100.00;46658.44;5066366;28;19925;-75
2022/08/16 18:54:38;;;;;;;;;;;;;;;-145.18;100.00;46662.34;5069510;28;19920;-75
2022/08/16 18:57:04;;;;;;;;;;;;;;;-145.18;100.00;46664.31;5069556;28;20010;-74
2022/08/16 18:59:29;;;;;;;;;;;;;;;-145.18;100.00;46656.50;5068850;28;19925;-75
2022/08/16 19:01:56;;;;;;;;;;;;;;;-145.18;100.00;46660.41;5064774;28;19921;-75
2022/08/16 19:04:21;;;;;;;;;;;;;;;-145.18;100.00;46650.63;5051245;28;19939;-73
2022/08/16 19:06:46;;;;;;;;;;;;;;;-145.18;100.00;46666.25;5061270;28;19925;-75
2022/08/16 19:09:11;;;;;;;;;;;;;;;-145.18;100.00;46660.41;5058560;28;19921;-75
2022/08/16 19:11:36;;;;;;;;;;;;;;;-145.18;100.00;46654.53;5059700;28;19978;-75
2022/08/16 19:14:02;;;;;;;;;;;;;;;-145.18;100.00;46648.69;5053417;28;19927;-75
2022/08/16 19:16:27;;;;;;;;;;;;;;;-145.18;100.00;46650.63;5051855;28;19940;-74
2022/08/16 19:18:52;;;;;;;;;;;;;;;-145.18;100.00;46650.63;5062744;28;19942;-75
2022/08/16 19:21:18;;;;;;;;;;;;;;;-145.18;100.00;46644.78;5066823;28;19925;-74
2022/08/16 19:23:43;;;;;;;;;;;;;;;-145.18;100.00;46644.78;5065008;28;19979;-75
2022/08/16 19:26:13;;;;;;;;;;;;;;;-145.18;100.00;46644.78;5059866;28;19928;-76
2022/08/16 19:28:40;;;;;;;;;;;;;;;-145.18;100.00;46646.72;5058730;28;19917;-75
2022/08/16 19:31:07;;;;;;;;;;;;;;;-145.18;100.00;46642.81;5060209;28;19924;-75
2022/08/16 19:33:33;;;;;;;;;;;;;;;-145.18;100.00;46642.81;5065538;28;19920;-75
2022/08/16 19:35:58;;;;;;;;;;;;;;;-145.18;100.00;46640.88;5062747;28;19928;-75
2022/08/16 19:38:24;;;;;;;;;;;;;;;-145.18;100.00;46644.78;5065495;28;20402;-76
2022/08/16 19:40:49;;;;;;;;;;;;;;;-145.18;100.00;46679.94;5067115;28;19929;-75
2022/08/16 19:43:14;;;;;;;;;;;;;;;-145.18;100.00;46679.94;5059057;28;19931;-76
2022/08/16 19:45:40;;;;;;;;;;;;;;;-145.18;100.00;46642.81;5059957;28;20288;-75
2022/08/16 19:48:05;;;;;;;;;;;;;;;-145.18;100.00;46640.88;5072398;28;19924;-75
2022/08/16 19:50:32;;;;;;;;;;;;;;;-145.18;100.00;46646.72;5090650;28;19977;-74
2022/08/16 19:53:02;;;;;;;;;;;;;;;-145.18;100.00;46642.81;5076486;28;20011;-75
2022/08/16 19:55:28;;;;;;;;;;;;;;;-145.18;100.00;46642.81;5085296;28;19924;-75
2022/08/16 19:57:53;;;;;;;;;;;;;;;-145.18;100.00;46640.88;5084319;28;19986;-75
2022/08/16 20:00:18;;;;;;;;;;;;;;;-145.18;100.00;46640.88;5073424;28;19920;-75
2022/08/16 20:02:46;;;;;;;;;;;;;;;-145.18;100.00;46648.69;5092172;28;19935;-75
2022/08/16 20:05:12;;;;;;;;;;;;;;;-145.18;100.00;46646.72;5091886;28;19973;-74
2022/08/16 20:07:38;;;;;;;;;;;;;;;-145.18;100.00;46679.94;5093431;28;19916;-74
2022/08/16 20:10:04;;;;;;;;;;;;;;;-145.18;100.00;46644.78;5092861;28;19924;-74
2022/08/16 20:12:29;;;;;;;;;;;;;;;-145.18;100.00;46642.81;5093319;28;19920;-74
2022/08/16 20:14:55;;;;;;;;;;;;;;;-145.18;100.00;46642.81;5092933;28;19916;-74
2022/08/16 20:17:20;;;;;;;;;;;;;;;-145.18;100.00;46644.78;5093394;28;19977;-74
2022/08/16 20:19:45;;;;;;;;;;;;;;;-145.18;100.00;46648.69;5092861;28;19920;-74
2022/08/16 20:22:16;;;;;;;;;;;;;;;-145.18;100.00;46644.78;5093113;28;20317;-74
2022/08/16 20:24:42;;;;;;;;;;;;;;;-145.18;100.00;46644.78;5092851;28;19924;-74
2022/08/16 20:27:08;;;;;;;;;;;;;;;-145.18;100.00;46644.78;5092931;28;19927;-74
2022/08/16 20:29:34;;;;;;;;;;;;;;;-145.18;100.00;46646.72;5093158;28;20303;-74
2022/08/16 20:32:00;;;;;;;;;;;;;;;-145.18;100.00;46650.63;5092638;28;19917;-74
2022/08/16 20:34:25;;;;;;;;;;;;;;;-145.18;100.00;46648.69;5092730;28;20089;-74
2022/08/16 20:36:50;;;;;;;;;;;;;;;-145.18;100.00;46644.78;5092915;28;19920;-74
2022/08/16 20:39:15;;;;;;;;;;;;;;;-145.18;100.00;46648.69;5092534;28;20448;-75
2022/08/16 20:41:41;;;;;;;;;;;;;;;-145.18;100.00;46650.63;5092879;28;19939;-75
2022/08/16 20:44:08;;;;;;;;;;;;;;;-145.18;100.00;46652.59;5092490;28;19920;-75
2022/08/16 20:46:34;;;;;;;;;;;;;;;-145.18;100.00;46652.59;5092934;28;20012;-75
2022/08/16 20:48:59;;;;;;;;;;;;;;;-145.18;100.00;46646.72;5092152;28;20022;-74
2022/08/16 20:51:24;;;;;;;;;;;;;;;-145.18;100.00;46648.69;5092775;28;19927;-74
2022/08/16 20:53:50;;;;;;;;;;;;;;;-145.18;100.00;46646.72;5092319;28;19923;-73
2022/08/16 20:56:15;;;;;;;;;;;;;;;-145.18;100.00;46648.69;5092371;28;19920;-74
2022/08/16 20:58:40;;;;;;;;;;;;;;;-145.18;100.00;46650.63;5088485;28;19924;-74
2022/08/16 21:01:06;;;;;;;;;;;;;;;-145.18;100.00;46679.94;5071422;28;19967;-74
2022/08/16 21:03:31;;;;;;;;;;;;;;;-145.18;100.00;46642.81;5072053;28;20027;-73
2022/08/16 21:05:57;;;;;;;;;;;;;;;-145.18;100.00;46646.72;5071901;28;20004;-74
2022/08/16 21:08:23;;;;;;;;;;;;;;;-145.18;100.00;46677.97;5071874;28;20696;-74
2022/08/16 21:10:48;;;;;;;;;;;;;;;-145.18;100.00;46642.81;5071981;28;19916;-74
2022/08/16 21:13:15;;;;;;;;;;;;;;;-145.18;100.00;46679.94;5071534;28;19920;-75
2022/08/16 21:15:40;;;;;;;;;;;;;;;-145.18;100.00;46640.88;5071867;28;19916;-75
2022/08/16 21:18:06;;;;;;;;;;;;;;;-145.18;100.00;46660.41;5071701;28;19985;-75
2022/08/16 21:20:31;;;;;;;;;;;;;;;-145.18;100.00;46677.97;5071574;28;19943;-74
2022/08/16 21:22:56;;;;;;;;;;;;;;;-145.18;100.00;46660.41;5071400;28;19929;-75
2022/08/16 21:25:22;;;;;;;;;;;;;;;-145.18;100.00;46677.97;5071939;28;20432;-74
2022/08/16 21:27:47;;;;;;;;;;;;;;;-145.18;100.00;46677.97;5071737;28;19920;-74
2022/08/16 21:30:13;;;;;;;;;;;;;;;-145.18;100.00;46679.94;5071226;28;19977;-75
2022/08/16 21:32:38;;;;;;;;;;;;;;;-145.18;100.00;46676.03;5071513;28;19920;-74
2022/08/16 21:35:05;;;;;;;;;;;;;;;-145.18;100.00;46642.81;5070914;28;19921;-74
2022/08/16 21:37:30;;;;;;;;;;;;;;;-145.18;100.00;46679.94;5071505;28;19995;-74
2022/08/16 21:39:55;;;;;;;;;;;;;;;-145.18;100.00;46644.78;5070996;28;20487;-74
2022/08/16 21:42:21;;;;;;;;;;;;;;;-145.18;100.00;46660.41;5071391;28;19928;-74
2022/08/16 21:44:46;;;;;;;;;;;;;;;-145.18;100.00;46642.81;5071084;28;19924;-74
2022/08/16 21:47:11;;;;;;;;;;;;;;;-145.18;100.00;46679.94;5070735;28;19924;-74
2022/08/16 21:49:37;;;;;;;;;;;;;;;-145.18;100.00;46640.88;5070978;28;19925;-74
2022/08/16 21:52:03;;;;;;;;;;;;;;;-145.18;100.00;46660.41;5071139;28;19967;-74
2022/08/16 21:54:28;;;;;;;;;;;;;;;-145.18;100.00;46642.81;5070841;28;19967;-73
2022/08/16 21:56:53;;;;;;;;;;;;;;;-145.18;100.00;46640.88;5071069;28;20021;-74
2022/08/16 21:59:19;;;;;;;;;;;;;;;-145.18;100.00;46677.97;5070744;28;19928;-74
2022/08/16 22:01:44;;;;;;;;;;;;;;;-145.18;100.00;46642.81;5070802;28;19917;-74
2022/08/16 22:04:12;;;;;;;;;;;;;;;-145.18;100.00;46677.97;5071008;28;19921;-74
2022/08/16 22:06:38;;;;;;;;;;;;;;;-145.18;100.00;46677.97;5071295;28;20011;-74
2022/08/16 22:09:04;;;;;;;;;;;;;;;-145.18;100.00;46660.41;5069572;28;20456;-74
2022/08/16 22:11:29;;;;;;;;;;;;;;;-145.18;100.00;46677.97;5070866;28;19923;-74
2022/08/16 22:13:55;;;;;;;;;;;;;;;-145.18;100.00;46677.97;5070845;28;20011;-74
2022/08/16 22:16:21;;;;;;;;;;;;;;;-145.18;100.00;46640.88;5071222;28;20292;-74
2022/08/16 22:18:46;;;;;;;;;;;;;;;-145.18;100.00;46660.41;5090709;28;19920;-73
2022/08/16 22:21:11;;;;;;;;;;;;;;;-145.18;100.00;46660.41;5089845;28;19939;-74
2022/08/16 22:23:37;;;;;;;;;;;;;;;-145.18;100.00;46660.41;5090821;28;20386;-74
2022/08/16 22:26:02;;;;;;;;;;;;;;;-145.18;100.00;46660.41;5090552;28;20023;-74
2022/08/16 22:28:27;;;;;;;;;;;;;;;-145.18;100.00;46660.41;5090968;28;19924;-74
2022/08/16 22:30:52;;;;;;;;;;;;;;;-145.18;100.00;46660.41;5075682;28;20003;-74
2022/08/16 22:33:19;;;;;;;;;;;;;;;-145.18;100.00;46660.41;5070426;28;19916;-74
2022/08/16 22:35:46;;;;;;;;;;;;;;;-145.18;100.00;46660.41;5070255;28;19924;-74
2022/08/16 22:38:12;;;;;;;;;;;;;;;-145.18;100.00;46660.41;5070447;28;19916;-74
2022/08/16 22:40:38;;;;;;;;;;;;;;;-145.18;100.00;46660.41;5070415;28;20380;-74
2022/08/16 22:43:04;;;;;;;;;;;;;;;-145.18;100.00;46660.41;5070106;28;20380;-73
2022/08/16 22:45:29;;;;;;;;;;;;;;;-145.18;100.00;46660.41;5070335;28;19928;-74
2022/08/16 22:47:55;;;;;;;;;;;;;;;-145.18;100.00;46660.41;5070220;28;19924;-74
2022/08/16 22:50:21;;;;;;;;;;;;;;;-145.18;100.00;46660.41;5052287;28;19951;-73
2022/08/16 22:52:47;;;;;;;;;;;;;;;-145.18;100.00;46660.41;5070601;28;20011;-73
2022/08/16 22:55:13;;;;;;;;;;;;;;;-145.18;100.00;46660.41;5069918;28;19924;-73
2022/08/16 22:57:38;;;;;;;;;;;;;;;-145.18;100.00;46660.41;5070334;28;19916;-73
2022/08/16 23:00:05;;;;;;;;;;;;;;;-145.18;100.00;46660.41;5069782;28;19920;-73
2022/08/16 23:02:30;;;;;;;;;;;;;;;-145.18;100.00;46660.41;5070340;28;19920;-73
2022/08/16 23:04:55;;;;;;;;;;;;;;;-145.18;100.00;46660.41;5069959;28;19920;-73
2022/08/16 23:07:21;;;;;;;;;;;;;;;-145.18;100.00;46660.41;5070107;28;20381;-74
2022/08/16 23:09:46;;;;;;;;;;;;;;;-145.18;100.00;46660.41;5070221;28;20357;-73
2022/08/16 23:12:13;;;;;;;;;;;;;;;-145.18;100.00;46660.41;5070082;28;19928;-73
2022/08/16 23:14:38;;;;;;;;;;;;;;;-145.18;100.00;46660.41;5052529;28;19916;-73
2022/08/16 23:17:03;;;;;;;;;;;;;;;-145.18;100.00;46660.41;5070093;28;20003;-74
2022/08/16 23:19:29;;;;;;;;;;;;;;;-145.18;100.00;46660.41;5070158;28;19920;-73
2022/08/16 23:21:54;;;;;;;;;;;;;;;-145.18;100.00;46660.41;5073768;28;19928;-74
2022/08/16 23:24:19;;;;;;;;;;;;;;;-145.18;100.00;46660.41;5073783;28;19921;-74
2022/08/16 23:26:45;;;;;;;;;;;;;;;-145.18;100.00;46660.41;5073996;28;20015;-74
2022/08/16 23:29:10;;;;;;;;;;;;;;;-145.18;100.00;46660.41;5073855;28;20376;-74
2022/08/16 23:31:35;;;;;;;;;;;;;;;-145.18;100.00;46660.41;5074019;28;20000;-74
2022/08/16 23:34:01;;;;;;;;;;;;;;;-145.18;100.00;46660.41;5073784;28;19928;-74
2022/08/16 23:36:26;;;;;;;;;;;;;;;-145.18;100.00;46660.41;5073866;28;19925;-74
2022/08/16 23:38:51;;;;;;;;;;;;;;;-145.18;100.00;46660.41;5073681;28;20019;-74
2022/08/16 23:41:16;;;;;;;;;;;;;;;-145.18;100.00;46660.41;5073310;28;20240;-73
2022/08/16 23:43:42;;;;;;;;;;;;;;;-145.18;100.00;46660.41;5073736;28;20403;-74
2022/08/16 23:46:10;;;;;;;;;;;;;;;-145.18;100.00;46660.41;5073483;28;19967;-73
2022/08/16 23:48:36;;;;;;;;;;;;;;;-145.18;100.00;46660.41;5073674;28;19921;-73
2022/08/16 23:51:02;;;;;;;;;;;;;;;-145.18;100.00;46660.41;5085745;28;19924;-73
2022/08/16 23:53:32;;;;;;;;;;;;;;;-145.18;100.00;46660.41;5094143;28;19912;-73
2022/08/16 23:56:02;;;;;;;;;;;;;;;-145.18;100.00;46660.41;5075514;28;19923;-74
2022/08/16 23:58:29;;;;;;;;;;;;;;;-145.18;100.00;46660.41;5094050;28;20391;-74
